Terminal Aerodrome Forecast
Issued by NWS

Home | Current Version | Previous Version | Text Only | Print | Product List | Glossary On
Versions: 1 2 3 4 5 6 7 8 9 10 11 12 13
000
FTUS45 KRIW 242320
TAFBPI
TAF
KBPI 242320Z 2500/2524 28018G28KT P6SM VCTS SCT060 BKN090CB
     FM250200 31013KT P6SM VCSH SCT070 BKN100
     FM250900 34008KT P6SM SCT100
     FM252000 32012G18KT P6SM BKN080=

USA.gov is the U.S. government's official web portal to all federal, state and local government web resources and services.